LEBZ/BJZ METAR and TAF weather

Enter ICAO airport designator
Station Type Date Time Source
LEBZ METAR 2022/05/24 12:00 UTC NOAA

LEBZ 241200Z 32012KT 270V360 CAVOK 23/03 Q1013


Station Type Date Time Source
LEBZ Decoded METAR 2022/05/24 12:00 UTC NOAA

Badajoz / Talavera La Real, Spain (LEBZ) 38-53N 006-49W 192M
May 24, 2022 - 08:00 AM EDT / 2022.05.24 1200 UTC
Wind: from the NW (320 degrees) at 14 MPH (12 KT) (direction variable):0
Visibility: greater than 7 mile(s):0
Temperature: 73 F (23 C)
Dew Point: 37 F (3 C)
Relative Humidity: 26%
Pressure (altimeter): 29.91 in. Hg (1013 hPa)
ob: LEBZ 241200Z 32012KT 270V360 CAVOK 23/03 Q1013
cycle: 12

Station Type Date Time Source
LEBZ TAF 2022/05/24 09:28 UTC NOAA

TAF LEBZ 240800Z 2409/2509 32010KT CAVOK TX28/2415Z TN12/2506Z

Example: see airport list